sensor_id;sensor_type;location;lat;lon;timestamp;pressure;altitude;pressure_sealevel;temperature;humidity
34177;BME280;20450;49.074;9.158;2023-02-17T00:02:31;100648.34;;;9.26;67.90
34177;BME280;20450;49.074;9.158;2023-02-17T00:06:48;100642.78;;;9.27;69.42
34177;BME280;20450;49.074;9.158;2023-02-17T00:10:30;100635.31;;;9.15;68.28
34177;BME280;20450;49.074;9.158;2023-02-17T00:17:26;100624.00;;;9.19;68.68
34177;BME280;20450;49.074;9.158;2023-02-17T00:19:58;100618.78;;;9.18;67.38
34177;BME280;20450;49.074;9.158;2023-02-17T00:22:25;100616.19;;;9.24;67.28
34177;BME280;20450;49.074;9.158;2023-02-17T00:24:52;100623.91;;;9.27;67.72
34177;BME280;20450;49.074;9.158;2023-02-17T00:27:24;100619.00;;;9.31;68.77
34177;BME280;20450;49.074;9.158;2023-02-17T00:29:51;100616.66;;;9.28;68.40
34177;BME280;20450;49.074;9.158;2023-02-17T00:35:57;100617.53;;;9.43;67.39
34177;BME280;20450;49.074;9.158;2023-02-17T00:42:10;100628.03;;;9.52;66.59
34177;BME280;20450;49.074;9.158;2023-02-17T00:44:38;100623.78;;;9.58;67.64
34177;BME280;20450;49.074;9.158;2023-02-17T00:47:05;100629.81;;;9.60;68.13
34177;BME280;20450;49.074;9.158;2023-02-17T00:49:32;100623.59;;;9.59;67.38
34177;BME280;20450;49.074;9.158;2023-02-17T00:52:19;100623.78;;;9.58;67.89
34177;BME280;20450;49.074;9.158;2023-02-17T00:55:28;100630.47;;;9.62;68.28
34177;BME280;20450;49.074;9.158;2023-02-17T01:01:58;100621.16;;;9.64;65.10
34177;BME280;20450;49.074;9.158;2023-02-17T01:04:33;100616.53;;;9.73;64.08
34177;BME280;20450;49.074;9.158;2023-02-17T01:07:03;100616.53;;;10.02;62.08
34177;BME280;20450;49.074;9.158;2023-02-17T01:09:30;100619.53;;;10.07;62.21
34177;BME280;20450;49.074;9.158;2023-02-17T01:11:57;100611.50;;;9.99;62.63
34177;BME280;20450;49.074;9.158;2023-02-17T01:14:41;100615.78;;;9.93;62.72
34177;BME280;20450;49.074;9.158;2023-02-17T01:17:16;100610.75;;;9.90;63.53
34177;BME280;20450;49.074;9.158;2023-02-17T01:19:42;100607.22;;;9.90;62.70
34177;BME280;20450;49.074;9.158;2023-02-17T01:22:09;100610.09;;;9.88;63.05
34177;BME280;20450;49.074;9.158;2023-02-17T01:25:04;100610.94;;;9.89;63.55
34177;BME280;20450;49.074;9.158;2023-02-17T01:27:32;100609.44;;;9.86;63.31
34177;BME280;20450;49.074;9.158;2023-02-17T01:30:00;100601.53;;;9.85;63.19
34177;BME280;20450;49.074;9.158;2023-02-17T01:32:28;100596.91;;;9.79;63.28
34177;BME280;20450;49.074;9.158;2023-02-17T01:39:01;100578.41;;;9.76;63.03
34177;BME280;20450;49.074;9.158;2023-02-17T01:41:33;100590.00;;;9.76;62.84
34177;BME280;20450;49.074;9.158;2023-02-17T01:44:24;100587.50;;;9.75;62.95
34177;BME280;20450;49.074;9.158;2023-02-17T01:47:05;100581.09;;;9.76;62.83
34177;BME280;20450;49.074;9.158;2023-02-17T01:49:40;100585.91;;;9.80;63.25
34177;BME280;20450;49.074;9.158;2023-02-17T01:55:24;100577.25;;;9.85;63.67
34177;BME280;20450;49.074;9.158;2023-02-17T01:58:00;100576.50;;;9.91;64.01
34177;BME280;20450;49.074;9.158;2023-02-17T02:00:31;100580.03;;;9.91;64.92
34177;BME280;20450;49.074;9.158;2023-02-17T02:07:21;100588.13;;;9.91;63.51
34177;BME280;20450;49.074;9.158;2023-02-17T02:10:42;100571.22;;;9.83;62.81
34177;BME280;20450;49.074;9.158;2023-02-17T02:13:09;100583.69;;;9.84;64.47
34177;BME280;20450;49.074;9.158;2023-02-17T02:16:19;100576.81;;;9.81;64.66
34177;BME280;20450;49.074;9.158;2023-02-17T02:23:40;100573.44;;;9.79;63.43
34177;BME280;20450;49.074;9.158;2023-02-17T02:26:55;100578.66;;;9.81;64.39
34177;BME280;20450;49.074;9.158;2023-02-17T02:30:44;100568.72;;;9.81;63.61
34177;BME280;20450;49.074;9.158;2023-02-17T02:34:05;100559.88;;;9.73;63.61
34177;BME280;20450;49.074;9.158;2023-02-17T02:38:11;100555.41;;;9.51;63.14
34177;BME280;20450;49.074;9.158;2023-02-17T02:40:46;100548.91;;;9.45;63.87
34177;BME280;20450;49.074;9.158;2023-02-17T02:55:25;100537.53;;;9.64;64.05
34177;BME280;20450;49.074;9.158;2023-02-17T02:59:24;100535.59;;;9.73;64.46
34177;BME280;20450;49.074;9.158;2023-02-17T03:02:13;100533.91;;;9.72;63.50
34177;BME280;20450;49.074;9.158;2023-02-17T03:04:58;100528.25;;;9.67;63.33
34177;BME280;20450;49.074;9.158;2023-02-17T03:08:27;100525.19;;;9.70;63.04
34177;BME280;20450;49.074;9.158;2023-02-17T03:11:13;100522.56;;;9.76;63.96
34177;BME280;20450;49.074;9.158;2023-02-17T03:13:52;100523.59;;;9.75;63.79
34177;BME280;20450;49.074;9.158;2023-02-17T03:18:03;100520.91;;;9.75;63.88
34177;BME280;20450;49.074;9.158;2023-02-17T03:20:35;100525.44;;;9.75;63.48
34177;BME280;20450;49.074;9.158;2023-02-17T03:23:05;100523.78;;;9.74;63.94
34177;BME280;20450;49.074;9.158;2023-02-17T03:25:34;100522.66;;;9.83;63.96
34177;BME280;20450;49.074;9.158;2023-02-17T03:28:06;100529.91;;;9.82;64.42
34177;BME280;20450;49.074;9.158;2023-02-17T03:30:56;100524.44;;;9.76;63.39
34177;BME280;20450;49.074;9.158;2023-02-17T03:33:23;100529.84;;;9.76;63.00
34177;BME280;20450;49.074;9.158;2023-02-17T03:35:52;100520.78;;;9.69;63.67
34177;BME280;20450;49.074;9.158;2023-02-17T03:38:24;100534.19;;;9.77;63.49
34177;BME280;20450;49.074;9.158;2023-02-17T03:40:59;100526.75;;;9.79;63.03
34177;BME280;20450;49.074;9.158;2023-02-17T03:43:55;100527.13;;;9.76;62.36
34177;BME280;20450;49.074;9.158;2023-02-17T03:46:22;100533.88;;;9.86;62.71
34177;BME280;20450;49.074;9.158;2023-02-17T03:48:49;100532.94;;;9.94;63.01
34177;BME280;20450;49.074;9.158;2023-02-17T03:51:18;100525.97;;;9.85;62.60
34177;BME280;20450;49.074;9.158;2023-02-17T03:53:47;100539.28;;;9.86;63.02
34177;BME280;20450;49.074;9.158;2023-02-17T03:56:43;100537.06;;;9.90;62.61
34177;BME280;20450;49.074;9.158;2023-02-17T04:08:16;100526.53;;;9.95;62.87
34177;BME280;20450;49.074;9.158;2023-02-17T04:10:44;100542.25;;;9.91;62.91
34177;BME280;20450;49.074;9.158;2023-02-17T04:13:15;100538.16;;;9.95;63.37
34177;BME280;20450;49.074;9.158;2023-02-17T04:15:42;100539.09;;;10.02;63.32
34177;BME280;20450;49.074;9.158;2023-02-17T04:18:09;100538.72;;;10.06;63.53
34177;BME280;20450;49.074;9.158;2023-02-17T04:20:36;100536.66;;;10.08;63.05
34177;BME280;20450;49.074;9.158;2023-02-17T04:23:03;100531.19;;;10.01;63.31
34177;BME280;20450;49.074;9.158;2023-02-17T04:25:32;100527.75;;;10.07;63.80
34177;BME280;20450;49.074;9.158;2023-02-17T04:27:59;100524.22;;;10.07;63.32
34177;BME280;20450;49.074;9.158;2023-02-17T04:30:28;100528.84;;;10.13;64.42
34177;BME280;20450;49.074;9.158;2023-02-17T04:32:55;100523.53;;;10.19;65.26
34177;BME280;20450;49.074;9.158;2023-02-17T04:35:22;100527.75;;;10.28;66.51
34177;BME280;20450;49.074;9.158;2023-02-17T04:37:50;100518.50;;;10.37;68.37
34177;BME280;20450;49.074;9.158;2023-02-17T04:40:17;100520.78;;;10.55;69.66
34177;BME280;20450;49.074;9.158;2023-02-17T04:42:45;100516.72;;;10.65;69.86
34177;BME280;20450;49.074;9.158;2023-02-17T04:45:12;100526.97;;;10.70;69.66
34177;BME280;20450;49.074;9.158;2023-02-17T04:47:40;100518.47;;;10.52;69.05
34177;BME280;20450;49.074;9.158;2023-02-17T04:50:09;100520.72;;;10.48;68.29
34177;BME280;20450;49.074;9.158;2023-02-17T04:52:39;100522.13;;;10.44;69.19
34177;BME280;20450;49.074;9.158;2023-02-17T04:55:06;100518.84;;;10.49;69.35
34177;BME280;20450;49.074;9.158;2023-02-17T04:57:34;100518.31;;;10.60;70.15
34177;BME280;20450;49.074;9.158;2023-02-17T05:00:02;100523.59;;;10.68;70.25
34177;BME280;20450;49.074;9.158;2023-02-17T05:02:30;100526.34;;;10.74;71.01
34177;BME280;20450;49.074;9.158;2023-02-17T05:04:58;100533.25;;;10.77;71.05
34177;BME280;20450;49.074;9.158;2023-02-17T05:07:25;100531.31;;;10.71;70.20
34177;BME280;20450;49.074;9.158;2023-02-17T05:09:52;100528.16;;;10.67;71.16
34177;BME280;20450;49.074;9.158;2023-02-17T05:12:19;100533.19;;;10.70;70.56
34177;BME280;20450;49.074;9.158;2023-02-17T05:14:46;100532.78;;;10.73;70.18
34177;BME280;20450;49.074;9.158;2023-02-17T05:17:13;100537.38;;;10.73;70.48
34177;BME280;20450;49.074;9.158;2023-02-17T05:19:40;100539.47;;;10.77;70.28
34177;BME280;20450;49.074;9.158;2023-02-17T05:22:08;100541.78;;;10.80;70.76
34177;BME280;20450;49.074;9.158;2023-02-17T05:24:35;100538.06;;;10.81;69.78
34177;BME280;20450;49.074;9.158;2023-02-17T05:27:04;100542.63;;;10.81;70.20
34177;BME280;20450;49.074;9.158;2023-02-17T05:29:35;100541.56;;;10.75;69.91
34177;BME280;20450;49.074;9.158;2023-02-17T05:32:08;100543.66;;;10.80;69.74
34177;BME280;20450;49.074;9.158;2023-02-17T05:34:38;100546.25;;;10.67;69.88
34177;BME280;20450;49.074;9.158;2023-02-17T05:37:05;100542.00;;;10.58;69.42
34177;BME280;20450;49.074;9.158;2023-02-17T05:39:33;100550.44;;;10.48;69.44
34177;BME280;20450;49.074;9.158;2023-02-17T05:42:00;100549.16;;;10.44;69.05
34177;BME280;20450;49.074;9.158;2023-02-17T05:44:27;100548.75;;;10.26;67.30
34177;BME280;20450;49.074;9.158;2023-02-17T05:46:54;100546.06;;;9.97;66.44
34177;BME280;20450;49.074;9.158;2023-02-17T05:49:21;100546.06;;;9.97;66.71
34177;BME280;20450;49.074;9.158;2023-02-17T05:51:48;100546.34;;;10.02;67.33
34177;BME280;20450;49.074;9.158;2023-02-17T05:54:15;100547.09;;;10.11;67.86
34177;BME280;20450;49.074;9.158;2023-02-17T05:56:43;100553.28;;;10.26;68.56
34177;BME280;20450;49.074;9.158;2023-02-17T05:59:10;100559.53;;;10.26;68.77
34177;BME280;20450;49.074;9.158;2023-02-17T06:01:37;100552.38;;;10.19;68.42
34177;BME280;20450;49.074;9.158;2023-02-17T06:04:04;100568.13;;;10.15;68.71
34177;BME280;20450;49.074;9.158;2023-02-17T06:06:31;100567.75;;;10.03;68.69
34177;BME280;20450;49.074;9.158;2023-02-17T06:08:58;100563.09;;;9.97;68.38
34177;BME280;20450;49.074;9.158;2023-02-17T06:11:25;100559.56;;;9.97;68.75
34177;BME280;20450;49.074;9.158;2023-02-17T06:13:53;100560.97;;;9.93;69.48
34177;BME280;20450;49.074;9.158;2023-02-17T06:16:20;100559.75;;;9.95;69.32
34177;BME280;20450;49.074;9.158;2023-02-17T06:18:47;100560.50;;;10.04;69.74
34177;BME280;20450;49.074;9.158;2023-02-17T06:21:14;100548.84;;;10.18;69.74
34177;BME280;20450;49.074;9.158;2023-02-17T06:23:41;100567.63;;;10.26;69.90
34177;BME280;20450;49.074;9.158;2023-02-17T06:26:08;100567.25;;;10.29;69.46
34177;BME280;20450;49.074;9.158;2023-02-17T06:28:37;100561.47;;;10.32;69.08
34177;BME280;20450;49.074;9.158;2023-02-17T06:31:05;100562.09;;;10.34;68.99
34177;BME280;20450;49.074;9.158;2023-02-17T06:33:32;100566.50;;;10.35;69.56
34177;BME280;20450;49.074;9.158;2023-02-17T06:35:59;100566.31;;;10.37;69.00
34177;BME280;20450;49.074;9.158;2023-02-17T06:38:26;100570.84;;;10.36;70.04
34177;BME280;20450;49.074;9.158;2023-02-17T06:40:53;100570.19;;;10.49;70.44
34177;BME280;20450;49.074;9.158;2023-02-17T06:43:20;100577.91;;;10.52;69.62
34177;BME280;20450;49.074;9.158;2023-02-17T06:45:47;100576.84;;;10.53;70.54
34177;BME280;20450;49.074;9.158;2023-02-17T06:48:15;100567.47;;;10.49;71.13
34177;BME280;20450;49.074;9.158;2023-02-17T06:50:42;100571.94;;;10.42;71.14
34177;BME280;20450;49.074;9.158;2023-02-17T06:53:09;100572.88;;;10.49;70.68
34177;BME280;20450;49.074;9.158;2023-02-17T06:55:37;100576.59;;;10.48;71.02
34177;BME280;20450;49.074;9.158;2023-02-17T06:58:04;100572.94;;;10.55;71.70
34177;BME280;20450;49.074;9.158;2023-02-17T07:00:31;100581.41;;;10.52;71.47
34177;BME280;20450;49.074;9.158;2023-02-17T07:02:57;100577.06;;;10.51;72.06
34177;BME280;20450;49.074;9.158;2023-02-17T07:05:26;100585.63;;;10.55;72.41
34177;BME280;20450;49.074;9.158;2023-02-17T07:07:56;100583.63;;;10.63;73.64
34177;BME280;20450;49.074;9.158;2023-02-17T07:10:23;100590.00;;;10.77;74.32
34177;BME280;20450;49.074;9.158;2023-02-17T07:12:50;100592.16;;;10.88;74.77
34177;BME280;20450;49.074;9.158;2023-02-17T07:15:17;100597.44;;;10.96;74.92
34177;BME280;20450;49.074;9.158;2023-02-17T07:17:45;100596.88;;;11.00;74.80
34177;BME280;20450;49.074;9.158;2023-02-17T07:20:13;100590.41;;;11.01;74.76
34177;BME280;20450;49.074;9.158;2023-02-17T07:22:41;100593.78;;;11.03;74.96
34177;BME280;20450;49.074;9.158;2023-02-17T07:25:08;100599.19;;;11.03;74.90
34177;BME280;20450;49.074;9.158;2023-02-17T07:27:36;100604.84;;;11.08;75.29
34177;BME280;20450;49.074;9.158;2023-02-17T07:30:04;100602.78;;;11.10;74.90
34177;BME280;20450;49.074;9.158;2023-02-17T07:32:33;100598.88;;;11.13;75.30
34177;BME280;20450;49.074;9.158;2023-02-17T07:35:00;100597.56;;;11.09;75.05
34177;BME280;20450;49.074;9.158;2023-02-17T07:37:27;100596.34;;;11.11;75.10
34177;BME280;20450;49.074;9.158;2023-02-17T07:39:56;100601.50;;;11.06;74.75
34177;BME280;20450;49.074;9.158;2023-02-17T07:42:25;100594.44;;;11.05;75.11
34177;BME280;20450;49.074;9.158;2023-02-17T07:44:52;100604.47;;;11.11;74.86
34177;BME280;20450;49.074;9.158;2023-02-17T07:47:46;100609.81;;;11.05;75.00
34177;BME280;20450;49.074;9.158;2023-02-17T07:50:15;100607.56;;;11.08;75.29
34177;BME280;20450;49.074;9.158;2023-02-17T07:52:42;100607.56;;;11.08;75.17
34177;BME280;20450;49.074;9.158;2023-02-17T07:55:11;100605.28;;;11.12;75.32
34177;BME280;20450;49.074;9.158;2023-02-17T07:57:38;100602.78;;;11.10;75.49
34177;BME280;20450;49.074;9.158;2023-02-17T08:00:06;100594.66;;;11.10;75.13
34177;BME280;20450;49.074;9.158;2023-02-17T08:02:39;100610.09;;;11.16;75.26
34177;BME280;20450;49.074;9.158;2023-02-17T08:05:06;100607.41;;;11.16;75.57
34177;BME280;20450;49.074;9.158;2023-02-17T08:07:33;100614.94;;;11.21;75.30
34177;BME280;20450;49.074;9.158;2023-02-17T08:10:02;100614.75;;;11.22;74.90
34177;BME280;20450;49.074;9.158;2023-02-17T08:12:31;100616.19;;;11.25;74.87
34177;BME280;20450;49.074;9.158;2023-02-17T08:15:03;100613.09;;;11.28;74.78
34177;BME280;20450;49.074;9.158;2023-02-17T08:17:31;100615.22;;;11.32;74.88
34177;BME280;20450;49.074;9.158;2023-02-17T08:19:59;100618.13;;;11.31;74.78
34177;BME280;20450;49.074;9.158;2023-02-17T08:26:22;100621.69;;;11.31;75.26
34177;BME280;20450;49.074;9.158;2023-02-17T08:28:51;100635.47;;;11.36;75.44
34177;BME280;20450;49.074;9.158;2023-02-17T08:31:20;100613.16;;;11.34;74.90
34177;BME280;20450;49.074;9.158;2023-02-17T08:33:50;100633.38;;;11.38;75.25
34177;BME280;20450;49.074;9.158;2023-02-17T08:36:17;100624.25;;;11.39;75.51
34177;BME280;20450;49.074;9.158;2023-02-17T08:38:45;100625.44;;;11.30;75.76
34177;BME280;20450;49.074;9.158;2023-02-17T08:41:12;100625.34;;;11.24;76.05
34177;BME280;20450;49.074;9.158;2023-02-17T08:43:40;100622.25;;;11.27;75.12
34177;BME280;20450;49.074;9.158;2023-02-17T08:46:10;100618.13;;;11.31;75.22
34177;BME280;20450;49.074;9.158;2023-02-17T08:48:38;100619.81;;;11.32;75.22
34177;BME280;20450;49.074;9.158;2023-02-17T08:51:05;100621.75;;;11.38;75.67
34177;BME280;20450;49.074;9.158;2023-02-17T08:53:33;100608.34;;;11.30;75.02
34177;BME280;20450;49.074;9.158;2023-02-17T08:56:00;100608.34;;;11.30;75.57
34177;BME280;20450;49.074;9.158;2023-02-17T08:58:27;100617.31;;;11.30;75.37
34177;BME280;20450;49.074;9.158;2023-02-17T09:00:54;100615.59;;;11.23;76.15
34177;BME280;20450;49.074;9.158;2023-02-17T09:03:23;100617.63;;;11.21;76.72
34177;BME280;20450;49.074;9.158;2023-02-17T09:06:07;100613.88;;;11.22;76.38
34177;BME280;20450;49.074;9.158;2023-02-17T09:09:34;100629.34;;;11.28;76.34
34177;BME280;20450;49.074;9.158;2023-02-17T09:12:02;100627.94;;;11.32;75.78
34177;BME280;20450;49.074;9.158;2023-02-17T09:14:29;100617.53;;;11.35;75.19
34177;BME280;20450;49.074;9.158;2023-02-17T09:16:56;100629.22;;;11.36;75.15
34177;BME280;20450;49.074;9.158;2023-02-17T09:19:25;100644.25;;;11.45;75.38
34177;BME280;20450;49.074;9.158;2023-02-17T09:21:52;100657.00;;;11.51;74.93
34177;BME280;20450;49.074;9.158;2023-02-17T09:24:20;100649.78;;;11.58;74.57
34177;BME280;20450;49.074;9.158;2023-02-17T09:26:49;100656.31;;;11.63;75.10
34177;BME280;20450;49.074;9.158;2023-02-17T09:29:16;100644.44;;;11.64;74.57
34177;BME280;20450;49.074;9.158;2023-02-17T09:31:46;100642.81;;;11.70;74.47
34177;BME280;20450;49.074;9.158;2023-02-17T09:34:13;100639.78;;;11.79;73.84
34177;BME280;20450;49.074;9.158;2023-02-17T09:36:44;100640.00;;;11.84;74.21
34177;BME280;20450;49.074;9.158;2023-02-17T09:39:12;100636.09;;;11.93;73.98
34177;BME280;20450;49.074;9.158;2023-02-17T09:41:43;100626.56;;;11.98;73.53
34177;BME280;20450;49.074;9.158;2023-02-17T09:44:20;100647.41;;;12.04;74.00
34177;BME280;20450;49.074;9.158;2023-02-17T09:46:58;100644.09;;;12.08;73.44
34177;BME280;20450;49.074;9.158;2023-02-17T09:49:37;100627.25;;;12.13;73.51
34177;BME280;20450;49.074;9.158;2023-02-17T09:52:13;100633.53;;;12.20;73.59
34177;BME280;20450;49.074;9.158;2023-02-17T09:54:54;100646.91;;;12.28;73.44
34177;BME280;20450;49.074;9.158;2023-02-17T09:57:29;100637.09;;;12.27;73.24
34177;BME280;20450;49.074;9.158;2023-02-17T10:00:05;100639.22;;;12.31;73.27
34177;BME280;20450;49.074;9.158;2023-02-17T10:02:41;100651.09;;;12.37;73.15
34177;BME280;20450;49.074;9.158;2023-02-17T10:05:17;100644.69;;;12.44;72.82
34177;BME280;20450;49.074;9.158;2023-02-17T10:08:13;100634.69;;;12.45;72.96
34177;BME280;20450;49.074;9.158;2023-02-17T10:10:49;100625.53;;;12.52;72.94
34177;BME280;20450;49.074;9.158;2023-02-17T10:13:21;100615.75;;;12.58;73.13
34177;BME280;20450;49.074;9.158;2023-02-17T10:15:52;100620.75;;;12.61;72.89
34177;BME280;20450;49.074;9.158;2023-02-17T10:18:29;100631.44;;;12.69;72.58
34177;BME280;20450;49.074;9.158;2023-02-17T10:21:03;100630.44;;;12.89;72.35
34177;BME280;20450;49.074;9.158;2023-02-17T10:23:40;100635.22;;;12.81;72.87
34177;BME280;20450;49.074;9.158;2023-02-17T10:26:21;100636.91;;;12.88;73.09
34177;BME280;20450;49.074;9.158;2023-02-17T10:28:53;100646.50;;;12.91;72.77
34177;BME280;20450;49.074;9.158;2023-02-17T10:31:43;100631.03;;;12.78;72.80
34177;BME280;20450;49.074;9.158;2023-02-17T10:34:18;100618.28;;;12.72;72.81
34177;BME280;20450;49.074;9.158;2023-02-17T10:37:00;100617.66;;;12.77;73.79
34177;BME280;20450;49.074;9.158;2023-02-17T10:39:40;100615.78;;;12.71;74.14
34177;BME280;20450;49.074;9.158;2023-02-17T10:42:19;100622.06;;;12.78;74.21
34177;BME280;20450;49.074;9.158;2023-02-17T10:44:50;100612.25;;;12.77;74.66
34177;BME280;20450;49.074;9.158;2023-02-17T10:47:21;100620.16;;;12.65;75.00
34177;BME280;20450;49.074;9.158;2023-02-17T10:49:50;100612.22;;;12.64;75.66
34177;BME280;20450;49.074;9.158;2023-02-17T10:52:22;100617.22;;;12.67;76.39
34177;BME280;20450;49.074;9.158;2023-02-17T10:55:08;100599.91;;;12.55;75.87
34177;BME280;20450;49.074;9.158;2023-02-17T10:57:54;100595.53;;;12.54;75.20
34177;BME280;20450;49.074;9.158;2023-02-17T11:00:26;100608.47;;;12.58;75.04
34177;BME280;20450;49.074;9.158;2023-02-17T11:02:53;100609.75;;;12.69;74.82
34177;BME280;20450;49.074;9.158;2023-02-17T11:05:23;100611.22;;;12.78;74.63
34177;BME280;20450;49.074;9.158;2023-02-17T11:07:57;100615.38;;;12.80;74.45
34177;BME280;20450;49.074;9.158;2023-02-17T11:10:31;100617.06;;;12.81;74.12
34177;BME280;20450;49.074;9.158;2023-02-17T11:13:01;100611.03;;;12.79;74.16
34177;BME280;20450;49.074;9.158;2023-02-17T11:15:33;100611.41;;;12.70;74.92
34177;BME280;20450;49.074;9.158;2023-02-17T11:18:10;100612.03;;;12.72;75.34
34177;BME280;20450;49.074;9.158;2023-02-17T11:20:44;100605.78;;;12.71;74.71
34177;BME280;20450;49.074;9.158;2023-02-17T11:23:22;100603.50;;;12.75;74.89
34177;BME280;20450;49.074;9.158;2023-02-17T11:26:00;100606.22;;;12.75;74.78
34177;BME280;20450;49.074;9.158;2023-02-17T11:28:36;100605.59;;;12.79;74.59
34177;BME280;20450;49.074;9.158;2023-02-17T11:31:03;100598.72;;;12.83;74.31
34177;BME280;20450;49.074;9.158;2023-02-17T11:33:34;100594.94;;;12.84;74.26
34177;BME280;20450;49.074;9.158;2023-02-17T11:36:03;100593.09;;;12.85;74.25
34177;BME280;20450;49.074;9.158;2023-02-17T11:38:41;100596.84;;;12.90;73.67
34177;BME280;20450;49.074;9.158;2023-02-17T11:41:11;100595.41;;;12.94;73.92
34177;BME280;20450;49.074;9.158;2023-02-17T11:43:50;100602.34;;;13.03;73.53
34177;BME280;20450;49.074;9.158;2023-02-17T11:46:29;100600.63;;;13.15;73.31
34177;BME280;20450;49.074;9.158;2023-02-17T11:49:08;100605.03;;;13.23;73.04
34177;BME280;20450;49.074;9.158;2023-02-17T11:52:14;100605.03;;;13.29;72.99
34177;BME280;20450;49.074;9.158;2023-02-17T11:55:06;100593.34;;;13.29;72.80
34177;BME280;20450;49.074;9.158;2023-02-17T11:57:56;100598.75;;;13.29;72.70
34177;BME280;20450;49.074;9.158;2023-02-17T12:00:44;100590.84;;;13.27;71.89
34177;BME280;20450;49.074;9.158;2023-02-17T12:03:32;100589.38;;;13.18;71.88
34177;BME280;20450;49.074;9.158;2023-02-17T12:06:16;100600.22;;;13.18;72.28
34177;BME280;20450;49.074;9.158;2023-02-17T12:08:59;100601.72;;;13.21;72.11
34177;BME280;20450;49.074;9.158;2023-02-17T12:11:44;100582.31;;;13.24;71.85
34177;BME280;20450;49.074;9.158;2023-02-17T12:14:33;100579.97;;;13.27;72.34
34177;BME280;20450;49.074;9.158;2023-02-17T12:17:16;100583.53;;;13.28;71.59
34177;BME280;20450;49.074;9.158;2023-02-17T12:19:55;100578.50;;;13.38;71.67
34177;BME280;20450;49.074;9.158;2023-02-17T12:22:35;100569.31;;;13.45;71.50
34177;BME280;20450;49.074;9.158;2023-02-17T12:25:23;100580.19;;;13.52;71.48
34177;BME280;20450;49.074;9.158;2023-02-17T12:28:05;100571.59;;;13.61;70.89
34177;BME280;20450;49.074;9.158;2023-02-17T12:30:54;100567.22;;;13.67;70.62
34177;BME280;20450;49.074;9.158;2023-02-17T12:33:40;100569.50;;;13.70;70.50
34177;BME280;20450;49.074;9.158;2023-02-17T12:36:17;100568.88;;;13.74;70.51
34177;BME280;20450;49.074;9.158;2023-02-17T12:38:47;100571.78;;;13.73;70.54
34177;BME280;20450;49.074;9.158;2023-02-17T12:41:21;100574.09;;;13.63;70.78
34177;BME280;20450;49.074;9.158;2023-02-17T12:43:54;100568.06;;;13.61;71.29
34177;BME280;20450;49.074;9.158;2023-02-17T12:46:35;100567.00;;;13.62;71.44
34177;BME280;20450;49.074;9.158;2023-02-17T12:49:11;100569.94;;;13.67;71.13
34177;BME280;20450;49.074;9.158;2023-02-17T12:51:45;100561.78;;;13.67;71.09
34177;BME280;20450;49.074;9.158;2023-02-17T12:54:19;100555.06;;;13.76;71.13
34177;BME280;20450;49.074;9.158;2023-02-17T12:57:01;100569.03;;;13.86;70.75
34177;BME280;20450;49.074;9.158;2023-02-17T12:59:35;100561.94;;;13.85;70.61
34177;BME280;20450;49.074;9.158;2023-02-17T13:02:08;100560.25;;;13.91;70.50
34177;BME280;20450;49.074;9.158;2023-02-17T13:04:37;100544.38;;;13.81;70.47
34177;BME280;20450;49.074;9.158;2023-02-17T13:07:22;100568.19;;;13.92;70.33
34177;BME280;20450;49.074;9.158;2023-02-17T13:10:01;100562.09;;;13.97;70.63
34177;BME280;20450;49.074;9.158;2023-02-17T13:12:39;100561.25;;;14.03;70.51
34177;BME280;20450;49.074;9.158;2023-02-17T13:15:25;100565.63;;;14.04;69.74
34177;BME280;20450;49.074;9.158;2023-02-17T13:18:27;100554.97;;;14.09;69.77
34177;BME280;20450;49.074;9.158;2023-02-17T13:21:17;100549.66;;;14.20;69.83
34177;BME280;20450;49.074;9.158;2023-02-17T13:23:58;100561.16;;;14.29;69.10
34177;BME280;20450;49.074;9.158;2023-02-17T13:26:32;100556.56;;;14.29;69.44
34177;BME280;20450;49.074;9.158;2023-02-17T13:29:31;100547.56;;;14.29;69.46
34177;BME280;20450;49.074;9.158;2023-02-17T13:32:01;100539.41;;;14.29;69.30
34177;BME280;20450;49.074;9.158;2023-02-17T13:34:34;100550.50;;;14.27;69.35
34177;BME280;20450;49.074;9.158;2023-02-17T13:37:25;100547.41;;;14.24;69.36
34177;BME280;20450;49.074;9.158;2023-02-17T13:40:40;100548.00;;;14.19;69.86
34177;BME280;20450;49.074;9.158;2023-02-17T13:47:11;100536.81;;;14.47;69.54
34177;BME280;20450;49.074;9.158;2023-02-17T13:49:51;100539.63;;;14.65;68.99
34177;BME280;20450;49.074;9.158;2023-02-17T13:57:20;100524.38;;;14.88;67.64
34177;BME280;20450;49.074;9.158;2023-02-17T14:00:24;100519.81;;;14.82;67.95
34177;BME280;20450;49.074;9.158;2023-02-17T14:03:10;100526.66;;;14.91;67.81
34177;BME280;20450;49.074;9.158;2023-02-17T14:13:33;100514.81;;;14.79;67.58
34177;BME280;20450;49.074;9.158;2023-02-17T14:16:56;100514.00;;;14.79;67.64
34177;BME280;20450;49.074;9.158;2023-02-17T14:28:51;100507.75;;;14.47;69.08
34177;BME280;20450;49.074;9.158;2023-02-17T14:31:45;100509.59;;;14.53;69.25
34177;BME280;20450;49.074;9.158;2023-02-17T14:34:34;100509.94;;;14.63;68.52
34177;BME280;20450;49.074;9.158;2023-02-17T14:37:47;100512.94;;;14.80;68.34
34177;BME280;20450;49.074;9.158;2023-02-17T14:40:17;100511.44;;;14.84;67.63
34177;BME280;20450;49.074;9.158;2023-02-17T14:42:54;100508.56;;;14.79;67.49
34177;BME280;20450;49.074;9.158;2023-02-17T14:45:22;100505.00;;;14.78;68.37
34177;BME280;20450;49.074;9.158;2023-02-17T14:47:49;100496.41;;;14.81;68.34
34177;BME280;20450;49.074;9.158;2023-02-17T14:50:17;100495.97;;;14.84;67.42
34177;BME280;20450;49.074;9.158;2023-02-17T14:52:45;100504.78;;;14.80;67.61
34177;BME280;20450;49.074;9.158;2023-02-17T14:55:17;100508.59;;;14.72;68.10
34177;BME280;20450;49.074;9.158;2023-02-17T14:58:20;100498.13;;;14.76;68.06
34177;BME280;20450;49.074;9.158;2023-02-17T15:02:31;100484.13;;;14.72;68.13
34177;BME280;20450;49.074;9.158;2023-02-17T15:13:37;100467.81;;;14.72;68.38